createdAt,value
2022-09-04T00:03:42.748Z,98386.56
2022-09-04T00:09:03.628Z,98393.47
2022-09-04T00:14:10.485Z,98390.16
2022-09-04T00:19:21.251Z,98394.38
2022-09-04T00:24:30.302Z,98398.56
2022-09-04T00:29:42.884Z,98398.41
2022-09-04T00:35:08.585Z,98398.09
2022-09-04T00:40:21.632Z,98405.28
2022-09-04T00:45:35.089Z,98411.53
2022-09-04T00:51:01.675Z,98415.91
2022-09-04T00:56:30.654Z,98421.13
2022-09-04T01:01:33.462Z,98423.34
2022-09-04T01:06:51.030Z,98434.75
2022-09-04T01:12:07.629Z,98429.38
2022-09-04T01:17:19.062Z,98438.44
2022-09-04T01:22:33.573Z,98429.03
2022-09-04T01:27:50.460Z,98432.03
2022-09-04T01:33:02.714Z,98439.22
2022-09-04T01:38:16.566Z,98432.16
2022-09-04T01:43:23.046Z,98432.38
2022-09-04T01:48:36.251Z,98435.31
2022-09-04T01:53:43.733Z,98437.41
2022-09-04T01:58:56.260Z,98429.56
2022-09-04T02:04:08.014Z,98435.69
2022-09-04T02:09:24.387Z,98439.75
2022-09-04T02:14:37.324Z,98438.31
2022-09-04T02:19:56.427Z,98442.59
2022-09-04T02:25:06.145Z,98446.59
2022-09-04T02:30:13.649Z,98456.75
2022-09-04T02:35:24.357Z,98460.03
2022-09-04T02:40:33.423Z,98469.50
2022-09-04T02:45:45.895Z,98469.13
2022-09-04T02:51:15.697Z,98473.66
2022-09-04T02:56:31.272Z,98481.84
2022-09-04T03:01:49.083Z,98477.84
2022-09-04T03:06:57.891Z,98487.44
2022-09-04T03:12:05.162Z,98484.00
2022-09-04T03:17:17.309Z,98495.25
2022-09-04T03:22:29.337Z,98496.66
2022-09-04T03:27:33.329Z,98487.19
2022-09-04T03:32:45.991Z,98487.31
2022-09-04T03:38:02.845Z,98483.50
2022-09-04T03:43:26.085Z,98486.19
2022-09-04T03:48:59.027Z,98487.91
2022-09-04T03:54:18.256Z,98490.75
2022-09-04T03:59:40.101Z,98492.16
2022-09-04T04:05:24.680Z,98490.69
2022-09-04T04:10:35.391Z,98495.03
2022-09-04T04:15:52.204Z,98496.97
2022-09-04T04:21:04.421Z,98500.59
2022-09-04T04:26:11.203Z,98507.03
2022-09-04T04:31:21.868Z,98513.63
2022-09-04T04:36:35.179Z,98514.69
2022-09-04T04:42:07.869Z,98523.56
2022-09-04T04:47:23.847Z,98522.75
2022-09-04T04:52:41.858Z,98530.41
2022-09-04T04:57:58.742Z,98529.34
2022-09-04T05:03:08.143Z,98539.34
2022-09-04T05:08:24.422Z,98556.28
2022-09-04T05:13:37.027Z,98560.34
2022-09-04T05:18:49.281Z,98562.91
2022-09-04T05:23:59.705Z,98574.41
2022-09-04T05:29:07.343Z,98579.19
2022-09-04T05:34:17.558Z,98582.81
2022-09-04T05:39:30.225Z,98588.78
2022-09-04T05:44:58.308Z,98602.97
2022-09-04T05:50:18.324Z,98602.59
2022-09-04T05:55:49.368Z,98611.78
2022-09-04T06:01:02.664Z,98620.63
2022-09-04T06:06:10.894Z,98624.19
2022-09-04T06:11:40.791Z,98621.19
2022-09-04T06:16:58.352Z,98628.16
2022-09-04T06:22:20.411Z,98636.28
2022-09-04T06:27:41.665Z,98639.81
2022-09-04T06:33:06.164Z,98655.75
2022-09-04T06:38:27.050Z,98653.75
2022-09-04T06:43:40.415Z,98660.25
2022-09-04T06:48:56.966Z,98655.69
2022-09-04T06:54:11.200Z,98665.13
2022-09-04T06:59:35.245Z,98672.75
2022-09-04T07:04:52.350Z,98681.78
2022-09-04T07:10:01.368Z,98679.97
2022-09-04T07:15:39.045Z,98680.81
2022-09-04T07:20:53.422Z,98695.84
2022-09-04T07:26:07.960Z,98690.47
2022-09-04T07:31:20.481Z,98691.72
2022-09-04T07:36:33.133Z,98687.66
2022-09-04T07:41:45.141Z,98700.28
2022-09-04T07:47:00.122Z,98705.00
2022-09-04T07:52:14.431Z,98707.34
2022-09-04T07:57:42.750Z,98714.16
2022-09-04T08:03:18.811Z,98720.53
2022-09-04T08:08:39.211Z,98723.69
2022-09-04T08:14:01.963Z,98733.81
2022-09-04T08:19:16.198Z,98738.34
2022-09-04T08:25:12.470Z,98753.56
2022-09-04T08:30:21.613Z,98756.03
2022-09-04T08:35:29.501Z,98752.84
2022-09-04T08:41:12.099Z,98758.72
2022-09-04T08:46:49.482Z,98761.25
2022-09-04T08:52:44.083Z,98766.75
2022-09-04T08:58:19.440Z,98772.84
2022-09-04T09:03:48.788Z,98774.25
2022-09-04T09:09:36.052Z,98774.19
2022-09-04T09:15:19.867Z,98767.69
2022-09-04T09:20:39.813Z,98775.00
2022-09-04T09:25:50.185Z,98767.13
2022-09-04T09:31:31.238Z,98773.69
2022-09-04T09:36:47.903Z,98768.25
2022-09-04T09:42:18.792Z,98769.88
2022-09-04T09:48:08.678Z,98772.28
2022-09-04T09:53:47.085Z,98764.41
2022-09-04T09:59:03.194Z,98761.97
2022-09-04T10:04:37.634Z,98765.00
2022-09-04T10:10:00.326Z,98773.38
2022-09-04T10:15:45.155Z,98768.09
2022-09-04T10:21:20.783Z,98763.47
2022-09-04T10:26:42.614Z,98770.41
2022-09-04T10:32:04.172Z,98767.75
2022-09-04T10:37:25.494Z,98751.38
2022-09-04T10:42:41.230Z,98755.38
2022-09-04T10:48:17.582Z,98751.97
2022-09-04T10:53:44.253Z,98745.88
2022-09-04T10:59:26.186Z,98740.91
2022-09-04T11:04:48.278Z,98733.16
2022-09-04T11:10:35.595Z,98738.72
2022-09-04T11:16:09.865Z,98743.63
2022-09-04T11:22:00.548Z,98742.59
2022-09-04T11:27:49.277Z,98735.09
2022-09-04T11:33:18.946Z,98729.19
2022-09-04T11:38:45.654Z,98733.00
2022-09-04T11:44:06.663Z,98734.59
2022-09-04T11:49:40.724Z,98729.34
2022-09-04T11:55:13.951Z,98738.06
2022-09-04T12:00:19.700Z,98742.38
2022-09-04T12:05:40.372Z,98740.63
2022-09-04T12:11:00.604Z,98737.56
2022-09-04T12:16:42.288Z,98729.28
2022-09-04T12:22:26.109Z,98737.56
2022-09-04T12:28:03.301Z,98738.94
2022-09-04T12:33:33.929Z,98728.47
2022-09-04T12:39:14.200Z,98725.34
2022-09-04T12:44:27.329Z,98727.28
2022-09-04T12:50:00.130Z,98732.69
2022-09-04T12:55:11.743Z,98734.16
2022-09-04T13:00:17.845Z,98734.31
2022-09-04T13:05:36.769Z,98728.63
2022-09-04T13:10:55.148Z,98734.44
2022-09-04T13:16:08.854Z,98737.22
2022-09-04T13:21:26.282Z,98746.97
2022-09-04T13:26:46.888Z,98740.53
2022-09-04T13:32:06.228Z,98748.97
2022-09-04T13:37:22.034Z,98741.13
2022-09-04T13:43:04.655Z,98730.16
2022-09-04T13:48:14.087Z,98739.09
2022-09-04T13:53:22.414Z,98737.09
2022-09-04T13:58:30.902Z,98734.53
2022-09-04T14:03:40.274Z,98740.22
2022-09-04T14:08:45.710Z,98739.13
2022-09-04T14:14:21.082Z,98733.97
2022-09-04T14:19:43.373Z,98746.25
2022-09-04T14:24:56.717Z,98746.00
2022-09-04T14:30:07.021Z,98736.13
2022-09-04T14:35:18.030Z,98747.13
2022-09-04T14:40:25.810Z,98746.00
2022-09-04T14:45:55.502Z,98746.97
2022-09-04T14:51:13.442Z,98754.28
2022-09-04T14:56:24.216Z,98740.97
2022-09-04T15:01:28.080Z,98739.06
2022-09-04T15:06:54.662Z,98734.59
2022-09-04T15:12:26.609Z,98733.75
2022-09-04T15:17:31.306Z,98734.00
2022-09-04T15:22:42.046Z,98731.09
2022-09-04T15:27:50.656Z,98739.16
2022-09-04T15:33:05.981Z,98747.97
2022-09-04T15:38:20.521Z,98746.59
2022-09-04T15:43:27.767Z,98741.19
2022-09-04T15:48:43.836Z,98743.53
2022-09-04T15:53:54.751Z,98748.00
2022-09-04T15:59:03.343Z,98746.94
2022-09-04T16:04:14.353Z,98730.19
2022-09-04T16:09:24.231Z,98733.34
2022-09-04T16:14:31.855Z,98730.06
2022-09-04T16:19:43.256Z,98738.94
2022-09-04T16:24:49.326Z,98736.81
2022-09-04T16:29:57.303Z,98740.94
2022-09-04T16:35:03.639Z,98728.69
2022-09-04T16:40:23.019Z,98734.59
2022-09-04T16:45:30.075Z,98727.25
2022-09-04T16:50:42.119Z,98720.72
2022-09-04T16:55:57.243Z,98739.59
2022-09-04T17:01:15.444Z,98728.91
2022-09-04T17:06:24.202Z,98724.53
2022-09-04T17:11:38.021Z,98726.31
2022-09-04T17:16:52.666Z,98726.03
2022-09-04T17:29:00.617Z,98720.88
2022-09-04T17:29:12.476Z,98724.41
2022-09-04T17:38:05.081Z,98722.28
2022-09-04T17:40:55.438Z,98734.16
2022-09-04T17:45:04.487Z,98730.88
2022-09-04T17:50:13.806Z,98719.88
2022-09-04T17:55:16.642Z,98728.94
2022-09-04T18:00:24.901Z,98735.03
2022-09-04T18:05:33.599Z,98742.56
2022-09-04T18:10:51.849Z,98739.56
2022-09-04T18:16:07.428Z,98751.44
2022-09-04T18:21:18.487Z,98746.50
2022-09-04T18:26:40.013Z,98758.28
2022-09-04T18:37:11.568Z,98762.75
2022-09-04T18:37:43.999Z,98776.09
2022-09-04T18:50:40.154Z,98783.19
2022-09-04T18:50:52.397Z,98781.72
2022-09-04T18:53:51.273Z,98776.72
2022-09-04T18:59:03.167Z,98783.88
2022-09-04T19:04:36.606Z,98788.03
2022-09-04T19:09:58.754Z,98789.47
2022-09-04T19:15:04.037Z,98796.94
2022-09-04T19:20:15.130Z,98809.66
2022-09-04T19:25:27.804Z,98803.78
2022-09-04T19:30:36.426Z,98808.16
2022-09-04T19:35:50.056Z,98813.53
2022-09-04T19:45:55.378Z,98817.72
2022-09-04T19:46:43.537Z,98813.56
2022-09-04T19:53:35.190Z,98815.94
2022-09-04T19:57:32.133Z,98814.91
2022-09-04T20:02:45.091Z,98815.78
2022-09-04T20:07:55.159Z,98815.06
2022-09-04T20:13:06.157Z,98814.97
2022-09-04T20:18:15.896Z,98820.09
2022-09-04T20:23:33.969Z,98809.84
2022-09-04T20:28:49.403Z,98819.84
2022-09-04T20:33:57.912Z,98822.44
2022-09-04T20:39:08.339Z,98818.41
2022-09-04T20:44:19.846Z,98828.41
2022-09-04T20:52:54.891Z,98820.31
2022-09-04T20:55:33.755Z,98835.84
2022-09-04T21:03:18.900Z,98837.19
2022-09-04T21:06:25.958Z,98839.91
2022-09-04T21:11:41.169Z,98850.38
2022-09-04T21:17:00.618Z,98850.56
2022-09-04T21:22:43.158Z,98859.16
2022-09-04T21:28:07.318Z,98857.13
2022-09-04T21:33:26.602Z,98854.91
2022-09-04T21:38:57.199Z,98858.78
2022-09-04T21:44:43.563Z,98857.91
2022-09-04T21:50:25.204Z,98864.31
2022-09-04T22:00:56.284Z,98869.13
2022-09-04T22:02:45.025Z,98877.34
2022-09-04T22:09:44.450Z,98880.53
2022-09-04T22:13:43.725Z,98881.84
2022-09-04T22:18:10.480Z,98882.66
2022-09-04T22:23:38.491Z,98884.31
2022-09-04T22:29:17.707Z,98875.66
2022-09-04T22:35:00.077Z,98891.72
2022-09-04T22:40:21.433Z,98884.66
2022-09-04T22:46:09.275Z,98888.97
2022-09-04T22:51:34.882Z,98896.16
2022-09-04T22:56:52.247Z,98891.59
2022-09-04T23:03:04.206Z,98896.84
2022-09-04T23:13:43.836Z,98899.50
2022-09-04T23:14:06.675Z,98900.25
2022-09-04T23:26:31.075Z,98901.75
2022-09-04T23:26:44.301Z,98904.34
2022-09-04T23:31:25.409Z,98899.22
2022-09-04T23:36:48.311Z,98905.53
2022-09-04T23:42:04.706Z,98905.47
2022-09-04T23:47:47.874Z,98902.91
2022-09-04T23:53:04.844Z,98901.53
2022-09-04T23:58:47.233Z,98900.28
